Time,TemperatureF,DewpointF,PressureIn,WindDirection,WindDirectionDegrees,WindSpeedMPH,WindSpeedGustMPH,Humidity,HourlyPrecipIn,Conditions,Clouds,dailyrainin,SoftwareType,DateUTC
2013-02-24 00:02:00,32.7,32.0,29.97,NE,45,0.0,1.0,97,0.00,,,0.00,meteohub,2013-02-24 05:02:00,
2013-02-24 00:07:00,32.7,32.0,29.97,NE,45,0.0,1.0,97,0.00,,,0.00,meteohub,2013-02-24 05:07:00,
2013-02-24 00:12:00,32.7,32.0,29.97,NE,45,0.0,0.0,97,0.00,,,0.00,meteohub,2013-02-24 05:12:00,
2013-02-24 00:17:00,32.7,32.0,29.94,NE,45,0.0,2.0,97,0.00,,,0.00,meteohub,2013-02-24 05:17:00,
2013-02-24 00:22:00,32.7,32.2,29.94,NE,45,0.0,2.0,98,0.00,,,0.00,meteohub,2013-02-24 05:22:00,
2013-02-24 00:27:00,32.7,32.2,29.94,NE,45,0.0,2.0,98,0.00,,,0.00,meteohub,2013-02-24 05:27:00,
2013-02-24 00:32:00,32.9,32.4,29.94,NE,45,1.0,2.0,98,0.00,,,0.00,meteohub,2013-02-24 05:32:00,
2013-02-24 00:37:00,32.9,32.4,29.94,NE,45,1.0,2.0,98,0.00,,,0.00,meteohub,2013-02-24 05:37:00,
2013-02-24 00:42:00,32.9,32.4,29.94,NE,45,0.0,2.0,98,0.00,,,0.00,meteohub,2013-02-24 05:42:00,
2013-02-24 00:47:00,32.7,32.2,29.94,NE,45,0.0,2.0,98,0.00,,,0.00,meteohub,2013-02-24 05:47:00,
2013-02-24 00:52:00,32.9,32.4,29.94,NE,45,0.0,2.0,98,0.00,,,0.00,meteohub,2013-02-24 05:52:00,
2013-02-24 00:57:00,32.9,32.4,29.94,NE,45,0.0,3.0,98,0.00,,,0.00,meteohub,2013-02-24 05:57:00,
2013-02-24 01:02:00,32.9,32.4,29.94,NE,45,1.0,3.0,98,0.00,,,0.00,meteohub,2013-02-24 06:02:00,
2013-02-24 01:07:00,32.9,32.4,29.94,NE,45,1.0,3.0,98,0.00,,,0.00,meteohub,2013-02-24 06:07:00,
2013-02-24 01:12:00,32.9,32.4,29.94,NE,45,1.0,3.0,98,0.00,,,0.00,meteohub,2013-02-24 06:12:00,
2013-02-24 01:17:00,32.9,32.4,29.94,NE,45,0.0,3.0,98,0.00,,,0.00,meteohub,2013-02-24 06:17:00,
2013-02-24 01:22:00,32.9,32.4,29.94,NE,45,1.0,3.0,98,0.00,,,0.00,meteohub,2013-02-24 06:22:00,
2013-02-24 01:27:00,32.9,32.4,29.94,NE,45,0.0,3.0,98,0.00,,,0.00,meteohub,2013-02-24 06:27:00,
2013-02-24 01:32:00,32.9,32.4,29.94,NE,45,1.0,3.0,98,0.00,,,0.00,meteohub,2013-02-24 06:32:00,
2013-02-24 01:37:00,32.9,32.4,29.94,NE,45,2.0,2.0,98,0.00,,,0.00,meteohub,2013-02-24 06:37:00,
2013-02-24 01:42:00,32.9,32.4,29.94,NE,45,1.0,2.0,98,0.00,,,0.00,meteohub,2013-02-24 06:42:00,
2013-02-24 01:47:00,32.9,32.4,29.94,NE,45,0.0,4.0,98,0.00,,,0.00,meteohub,2013-02-24 06:47:00,
2013-02-24 01:52:00,32.9,32.4,29.94,NE,45,1.0,4.0,98,0.00,,,0.00,meteohub,2013-02-24 06:52:00,
2013-02-24 01:57:00,32.9,32.4,29.94,NE,45,2.0,4.0,98,0.00,,,0.00,meteohub,2013-02-24 06:57:00,
2013-02-24 02:02:00,32.9,32.4,29.94,NE,45,1.0,2.0,98,0.00,,,0.00,meteohub,2013-02-24 07:02:00,
2013-02-24 02:07:00,32.9,32.4,29.94,NE,45,0.0,3.0,98,0.00,,,0.00,meteohub,2013-02-24 07:07:00,
2013-02-24 02:12:00,32.9,32.4,29.94,NE,45,0.0,3.0,98,0.00,,,0.00,meteohub,2013-02-24 07:12:00,
2013-02-24 02:17:00,32.9,32.4,29.94,NE,45,2.0,3.0,98,0.00,,,0.00,meteohub,2013-02-24 07:17:00,
2013-02-24 02:22:00,32.9,32.4,29.94,NE,45,2.0,3.0,98,0.00,,,0.00,meteohub,2013-02-24 07:22:00,
2013-02-24 02:27:00,32.9,32.4,29.94,NE,45,2.0,3.0,98,0.00,,,0.00,meteohub,2013-02-24 07:27:00,
2013-02-24 02:32:00,32.9,32.4,29.91,NE,45,2.0,3.0,98,0.00,,,0.00,meteohub,2013-02-24 07:32:00,
2013-02-24 02:37:00,32.9,32.4,29.91,NE,45,2.0,3.0,98,0.00,,,0.00,meteohub,2013-02-24 07:37:00,
2013-02-24 02:42:00,32.9,32.4,29.91,NE,45,1.0,3.0,98,0.00,,,0.00,meteohub,2013-02-24 07:42:00,
2013-02-24 02:47:00,32.9,32.4,29.88,NE,45,2.0,3.0,98,0.00,,,0.00,meteohub,2013-02-24 07:47:00,
2013-02-24 02:52:00,32.9,32.4,29.88,NE,45,0.0,3.0,98,0.00,,,0.00,meteohub,2013-02-24 07:52:00,
2013-02-24 02:57:00,32.9,32.4,29.88,NE,45,2.0,3.0,98,0.00,,,0.00,meteohub,2013-02-24 07:57:00,
2013-02-24 03:02:00,32.9,32.4,29.88,NE,45,1.0,3.0,98,0.00,,,0.00,meteohub,2013-02-24 08:02:00,
2013-02-24 03:07:00,33.1,32.5,29.88,NE,45,3.0,3.0,98,0.00,,,0.00,meteohub,2013-02-24 08:07:00,
2013-02-24 03:12:00,33.1,32.5,29.88,NE,45,3.0,3.0,98,0.00,,,0.00,meteohub,2013-02-24 08:12:00,
2013-02-24 03:17:00,33.1,32.5,29.88,NE,45,2.0,3.0,98,0.00,,,0.00,meteohub,2013-02-24 08:17:00,
2013-02-24 03:22:00,33.1,32.5,29.88,NE,45,1.0,3.0,98,0.00,,,0.00,meteohub,2013-02-24 08:22:00,
2013-02-24 03:27:00,33.1,32.5,29.88,NE,45,0.0,3.0,98,0.00,,,0.00,meteohub,2013-02-24 08:27:00,
2013-02-24 03:32:00,33.1,32.5,29.88,NE,45,3.0,3.0,98,0.00,,,0.00,meteohub,2013-02-24 08:32:00,
2013-02-24 03:37:00,33.1,32.5,29.88,NE,45,2.0,3.0,98,0.00,,,0.00,meteohub,2013-02-24 08:37:00,
2013-02-24 03:42:00,33.1,32.5,29.88,NE,45,1.0,3.0,98,0.00,,,0.00,meteohub,2013-02-24 08:42:00,
2013-02-24 03:47:00,33.3,32.7,29.88,NE,45,1.0,3.0,98,0.00,,,0.00,meteohub,2013-02-24 08:47:00,
2013-02-24 03:52:00,33.3,32.7,29.88,NE,45,3.0,3.0,98,0.00,,,0.00,meteohub,2013-02-24 08:52:00,
2013-02-24 03:57:00,33.3,32.7,29.88,NE,45,2.0,3.0,98,0.00,,,0.00,meteohub,2013-02-24 08:57:00,
2013-02-24 04:02:00,33.3,32.7,29.88,NE,45,0.0,3.0,98,0.00,,,0.00,meteohub,2013-02-24 09:02:00,
2013-02-24 04:07:00,33.3,32.7,29.88,NE,45,1.0,3.0,98,0.00,,,0.00,meteohub,2013-02-24 09:07:00,
2013-02-24 04:12:00,33.3,32.7,29.88,NE,45,2.0,3.0,98,0.00,,,0.00,meteohub,2013-02-24 09:12:00,
2013-02-24 04:17:00,33.3,32.7,29.88,NE,45,3.0,3.0,98,0.00,,,0.00,meteohub,2013-02-24 09:17:00,
2013-02-24 04:22:00,33.3,32.7,29.88,NE,45,2.0,4.0,98,0.00,,,0.00,meteohub,2013-02-24 09:22:00,
2013-02-24 04:27:00,33.3,32.7,29.88,NE,45,4.0,4.0,98,0.00,,,0.00,meteohub,2013-02-24 09:27:00,
2013-02-24 04:32:00,33.3,32.7,29.88,NE,45,2.0,4.0,98,0.00,,,0.00,meteohub,2013-02-24 09:32:00,
2013-02-24 04:37:00,33.3,32.7,29.88,NNE,22,2.0,4.0,98,0.00,,,0.00,meteohub,2013-02-24 09:37:00,
2013-02-24 04:42:00,33.3,32.7,29.88,NNE,22,3.0,4.0,98,0.00,,,0.00,meteohub,2013-02-24 09:42:00,
2013-02-24 04:47:00,33.3,32.7,29.85,NNE,22,2.0,3.0,98,0.00,,,0.00,meteohub,2013-02-24 09:47:00,
2013-02-24 04:52:00,33.4,32.9,29.85,NNE,22,2.0,4.0,98,0.00,,,0.00,meteohub,2013-02-24 09:52:00,
2013-02-24 04:57:00,33.4,32.9,29.85,NNE,22,2.0,4.0,98,0.00,,,0.00,meteohub,2013-02-24 09:57:00,
2013-02-24 05:02:00,33.4,32.9,29.85,NNE,22,2.0,4.0,98,0.00,,,0.00,meteohub,2013-02-24 10:02:00,
2013-02-24 05:07:00,33.4,32.9,29.85,NNE,22,3.0,4.0,98,0.00,,,0.00,meteohub,2013-02-24 10:07:00,
2013-02-24 05:12:00,33.4,32.9,29.85,NNE,22,3.0,4.0,98,0.00,,,0.00,meteohub,2013-02-24 10:12:00,
2013-02-24 05:17:00,33.4,32.9,29.85,NNE,22,3.0,3.0,98,0.00,,,0.00,meteohub,2013-02-24 10:17:00,
2013-02-24 05:22:00,33.4,32.9,29.85,NNE,22,3.0,3.0,98,0.00,,,0.00,meteohub,2013-02-24 10:22:00,
2013-02-24 05:27:00,33.4,32.9,29.85,NNE,22,3.0,3.0,98,0.00,,,0.00,meteohub,2013-02-24 10:27:00,
2013-02-24 05:32:00,33.4,32.9,29.85,NNE,22,2.0,4.0,98,0.00,,,0.00,meteohub,2013-02-24 10:32:00,
2013-02-24 05:37:00,33.4,32.9,29.85,NNE,22,4.0,4.0,98,0.00,,,0.00,meteohub,2013-02-24 10:37:00,
2013-02-24 05:42:00,33.4,32.9,29.85,NNE,22,3.0,4.0,98,0.00,,,0.00,meteohub,2013-02-24 10:42:00,
2013-02-24 05:47:00,33.4,32.9,29.85,NNE,22,3.0,4.0,98,0.00,,,0.00,meteohub,2013-02-24 10:47:00,
2013-02-24 05:52:00,33.3,32.7,29.85,NNE,22,3.0,4.0,98,0.00,,,0.00,meteohub,2013-02-24 10:52:00,
2013-02-24 05:57:00,33.3,32.7,29.85,NNE,22,2.0,4.0,98,0.00,,,0.00,meteohub,2013-02-24 10:57:00,
2013-02-24 06:02:00,33.3,32.7,29.85,NNE,22,2.0,4.0,98,0.00,,,0.00,meteohub,2013-02-24 11:02:00,
2013-02-24 06:07:00,33.3,32.7,29.85,NNE,22,3.0,4.0,98,0.00,,,0.00,meteohub,2013-02-24 11:07:00,
2013-02-24 06:12:00,33.3,32.7,29.85,NNE,22,3.0,4.0,98,0.00,,,0.00,meteohub,2013-02-24 11:12:00,
2013-02-24 06:17:00,33.3,32.7,29.85,NNE,22,2.0,4.0,98,0.00,,,0.00,meteohub,2013-02-24 11:17:00,
2013-02-24 06:22:00,33.3,32.7,29.85,NNE,22,3.0,4.0,98,0.00,,,0.00,meteohub,2013-02-24 11:22:00,
2013-02-24 06:27:00,33.1,32.5,29.85,NNE,22,2.0,4.0,98,0.00,,,0.00,meteohub,2013-02-24 11:27:00,
2013-02-24 06:32:00,33.1,32.5,29.85,NNE,22,3.0,4.0,98,0.00,,,0.00,meteohub,2013-02-24 11:32:00,
2013-02-24 06:37:00,33.1,32.5,29.85,NNE,22,4.0,4.0,98,0.00,,,0.00,meteohub,2013-02-24 11:37:00,
2013-02-24 06:42:00,33.1,32.5,29.85,NNE,22,3.0,6.0,98,0.00,,,0.00,meteohub,2013-02-24 11:42:00,
2013-02-24 06:47:00,33.1,32.5,29.85,NNE,22,2.0,6.0,98,0.00,,,0.00,meteohub,2013-02-24 11:47:00,
2013-02-24 06:52:00,33.1,32.5,29.85,NNE,22,3.0,6.0,98,0.00,,,0.00,meteohub,2013-02-24 11:52:00,
2013-02-24 06:57:00,33.1,32.5,29.85,NNE,22,2.0,3.0,98,0.00,,,0.00,meteohub,2013-02-24 11:57:00,
2013-02-24 07:02:00,33.1,32.5,29.85,NNE,22,2.0,4.0,98,0.00,,,0.00,meteohub,2013-02-24 12:02:00,
2013-02-24 07:07:00,33.1,32.5,29.85,NNE,22,3.0,4.0,98,0.00,,,0.00,meteohub,2013-02-24 12:07:00,
2013-02-24 07:12:00,33.1,32.5,29.85,NNE,22,2.0,4.0,98,0.00,,,0.00,meteohub,2013-02-24 12:12:00,
2013-02-24 07:17:00,33.1,32.5,29.88,NNE,22,1.0,3.0,98,0.00,,,0.00,meteohub,2013-02-24 12:17:00,
2013-02-24 07:22:00,33.1,32.5,29.88,NNE,22,3.0,3.0,98,0.00,,,0.00,meteohub,2013-02-24 12:22:00,
2013-02-24 07:27:00,33.1,32.5,29.88,NNE,22,3.0,4.0,98,0.00,,,0.00,meteohub,2013-02-24 12:27:00,
2013-02-24 07:32:00,33.1,32.5,29.85,NNE,22,1.0,5.0,98,0.00,,,0.00,meteohub,2013-02-24 12:32:00,
2013-02-24 07:37:00,33.1,32.5,29.85,NNE,22,2.0,5.0,98,0.00,,,0.00,meteohub,2013-02-24 12:37:00,
2013-02-24 07:47:00,33.1,32.5,29.85,NNE,22,2.0,4.0,98,0.00,,,0.00,meteohub,2013-02-24 12:47:00,
2013-02-24 07:52:00,33.1,32.5,29.85,NNE,22,2.0,4.0,98,0.00,,,0.00,meteohub,2013-02-24 12:52:00,
2013-02-24 07:57:00,33.1,32.5,29.85,NNE,22,2.0,4.0,98,0.00,,,0.00,meteohub,2013-02-24 12:57:00,
2013-02-24 08:02:00,33.1,32.5,29.82,NNE,22,2.0,4.0,98,0.00,,,0.00,meteohub,2013-02-24 13:02:00,
2013-02-24 08:07:00,33.3,32.7,29.82,NNE,22,3.0,4.0,98,0.00,,,0.00,meteohub,2013-02-24 13:07:00,
2013-02-24 08:12:00,33.3,32.7,29.82,NNE,22,2.0,4.0,98,0.00,,,0.00,meteohub,2013-02-24 13:12:00,
2013-02-24 08:17:00,33.3,32.7,29.82,NNE,22,4.0,4.0,98,0.00,,,0.00,meteohub,2013-02-24 13:17:00,
2013-02-24 08:27:00,33.4,32.9,29.82,NNE,22,3.0,5.0,98,0.00,,,0.00,meteohub,2013-02-24 13:27:00,
2013-02-24 08:32:00,33.4,32.9,29.82,NNE,22,2.0,4.0,98,0.00,,,0.00,meteohub,2013-02-24 13:32:00,
2013-02-24 08:37:00,33.4,32.9,29.82,NNE,22,2.0,4.0,98,0.00,,,0.00,meteohub,2013-02-24 13:37:00,
2013-02-24 08:42:00,33.4,32.9,29.82,NNE,22,2.0,4.0,98,0.00,,,0.00,meteohub,2013-02-24 13:42:00,
2013-02-24 08:47:00,33.4,32.9,29.79,NNE,22,2.0,4.0,98,0.00,,,0.00,meteohub,2013-02-24 13:47:00,
2013-02-24 08:52:00,33.4,32.9,29.79,North,0,3.0,4.0,98,0.00,,,0.00,meteohub,2013-02-24 13:52:00,
2013-02-24 08:57:00,33.6,33.1,29.79,NNE,22,3.0,4.0,98,0.00,,,0.00,meteohub,2013-02-24 13:57:00,
2013-02-24 09:02:00,33.6,33.1,29.79,NNW,338,3.0,4.0,98,0.00,,,0.00,meteohub,2013-02-24 14:02:00,
2013-02-24 09:07:00,33.6,33.1,29.79,North,0,3.0,5.0,98,0.00,,,0.00,meteohub,2013-02-24 14:07:00,
2013-02-24 09:12:00,33.8,33.3,29.79,NNE,22,4.0,5.0,98,0.00,,,0.00,meteohub,2013-02-24 14:12:00,
2013-02-24 09:17:00,33.8,33.3,29.85,North,0,2.0,5.0,98,0.00,,,0.00,meteohub,2013-02-24 14:17:00,
2013-02-24 09:22:00,33.8,33.3,29.85,NNW,338,3.0,6.0,98,0.00,,,0.00,meteohub,2013-02-24 14:22:00,
2013-02-24 09:27:00,33.8,33.3,29.85,North,0,4.0,6.0,98,0.00,,,0.00,meteohub,2013-02-24 14:27:00,
2013-02-24 09:32:00,33.8,33.3,29.82,NNW,338,3.0,4.0,98,0.00,,,0.00,meteohub,2013-02-24 14:32:00,
2013-02-24 09:37:00,33.8,33.3,29.82,NNW,338,3.0,4.0,98,0.00,,,0.00,meteohub,2013-02-24 14:37:00,
2013-02-24 09:42:00,33.8,33.3,29.82,North,0,2.0,6.0,98,0.00,,,0.00,meteohub,2013-02-24 14:42:00,
2013-02-24 09:47:00,33.8,33.3,29.82,North,0,3.0,6.0,98,0.00,,,0.00,meteohub,2013-02-24 14:47:00,
2013-02-24 09:52:00,33.8,33.3,29.82,North,0,3.0,7.0,98,0.00,,,0.00,meteohub,2013-02-24 14:52:00,
2013-02-24 09:57:00,33.8,33.3,29.82,North,0,4.0,7.0,98,0.00,,,0.00,meteohub,2013-02-24 14:57:00,
2013-02-24 10:02:00,33.8,33.3,29.79,NNW,338,3.0,6.0,98,0.00,,,0.00,meteohub,2013-02-24 15:02:00,
2013-02-24 10:07:00,33.8,33.3,29.79,NNW,338,3.0,6.0,98,0.00,,,0.00,meteohub,2013-02-24 15:07:00,
2013-02-24 10:12:00,33.8,33.3,29.79,NNW,338,2.0,6.0,98,0.00,,,0.00,meteohub,2013-02-24 15:12:00,
2013-02-24 10:17:00,34.0,33.4,29.82,NNW,338,4.0,6.0,98,0.00,,,0.00,meteohub,2013-02-24 15:17:00,
2013-02-24 10:22:00,34.0,33.4,29.82,NNW,338,4.0,6.0,98,0.00,,,0.00,meteohub,2013-02-24 15:22:00,
2013-02-24 10:27:00,34.2,33.6,29.82,NE,45,3.0,4.0,98,0.00,,,0.00,meteohub,2013-02-24 15:27:00,
2013-02-24 10:32:00,34.3,33.8,29.82,NNE,22,4.0,4.0,98,0.00,,,0.00,meteohub,2013-02-24 15:32:00,
2013-02-24 10:37:00,34.3,33.8,29.82,NNW,338,4.0,6.0,98,0.00,,,0.00,meteohub,2013-02-24 15:37:00,
2013-02-24 10:42:00,34.3,33.8,29.82,North,0,7.0,7.0,98,0.00,,,0.00,meteohub,2013-02-24 15:42:00,
2013-02-24 10:47:00,34.3,33.8,29.79,NNW,338,4.0,7.0,98,0.00,,,0.00,meteohub,2013-02-24 15:47:00,
2013-02-24 10:52:00,34.3,33.8,29.79,North,0,4.0,7.0,98,0.00,,,0.00,meteohub,2013-02-24 15:52:00,
2013-02-24 10:57:00,34.3,33.8,29.79,NNW,338,4.0,7.0,98,0.00,,,0.00,meteohub,2013-02-24 15:57:00,
2013-02-24 11:02:00,34.2,33.6,29.79,NNW,338,4.0,6.0,98,0.00,,,0.00,meteohub,2013-02-24 16:02:00,
2013-02-24 11:07:00,34.2,33.6,29.79,NNW,338,5.0,8.0,98,0.00,,,0.00,meteohub,2013-02-24 16:07:00,
2013-02-24 11:12:00,34.0,33.4,29.79,NNW,338,3.0,8.0,98,0.00,,,0.00,meteohub,2013-02-24 16:12:00,
2013-02-24 11:17:00,34.0,33.4,29.79,North,0,4.0,8.0,98,0.00,,,0.00,meteohub,2013-02-24 16:17:00,
2013-02-24 11:22:00,33.8,33.3,29.79,NNW,338,3.0,7.0,98,0.00,,,0.00,meteohub,2013-02-24 16:22:00,
2013-02-24 11:27:00,33.8,33.3,29.79,North,0,4.0,5.0,98,0.00,,,0.00,meteohub,2013-02-24 16:27:00,
2013-02-24 11:32:00,33.6,33.1,29.82,NNW,338,3.0,5.0,98,0.00,,,0.00,meteohub,2013-02-24 16:32:00,
2013-02-24 11:37:00,33.6,33.1,29.82,NNW,338,3.0,5.0,98,0.00,,,0.00,meteohub,2013-02-24 16:37:00,
2013-02-24 11:42:00,33.4,32.9,29.82,NNW,338,4.0,5.0,98,0.00,,,0.00,meteohub,2013-02-24 16:42:00,
2013-02-24 11:47:00,33.3,32.7,29.82,NNE,22,3.0,5.0,98,0.00,,,0.00,meteohub,2013-02-24 16:47:00,
2013-02-24 11:52:00,33.3,32.7,29.82,North,0,3.0,5.0,98,0.00,,,0.00,meteohub,2013-02-24 16:52:00,
2013-02-24 11:57:00,33.3,32.7,29.82,NNW,338,2.0,5.0,98,0.00,,,0.00,meteohub,2013-02-24 16:57:00,
2013-02-24 12:02:00,33.1,32.5,29.82,NNW,338,3.0,4.0,98,0.00,,,0.00,meteohub,2013-02-24 17:02:00,
2013-02-24 12:07:00,33.1,32.5,29.82,North,0,2.0,4.0,98,0.00,,,0.00,meteohub,2013-02-24 17:07:00,
2013-02-24 12:12:00,33.1,32.5,29.82,NNW,338,2.0,5.0,98,0.00,,,0.00,meteohub,2013-02-24 17:12:00,
2013-02-24 12:17:00,33.1,32.5,29.79,North,0,2.0,5.0,98,0.00,,,0.00,meteohub,2013-02-24 17:17:00,
2013-02-24 12:22:00,33.1,32.5,29.79,North,0,1.0,3.0,98,0.00,,,0.00,meteohub,2013-02-24 17:22:00,
2013-02-24 12:27:00,33.1,32.5,29.79,North,0,2.0,3.0,98,0.00,,,0.00,meteohub,2013-02-24 17:27:00,
2013-02-24 12:32:00,33.3,32.7,29.79,North,0,2.0,3.0,98,0.00,,,0.00,meteohub,2013-02-24 17:32:00,
2013-02-24 12:37:00,33.3,32.7,29.79,North,0,2.0,3.0,98,0.00,,,0.00,meteohub,2013-02-24 17:37:00,
2013-02-24 12:42:00,33.3,32.7,29.79,North,0,1.0,3.0,98,0.00,,,0.00,meteohub,2013-02-24 17:42:00,
2013-02-24 12:47:00,33.4,32.9,29.79,North,0,1.0,3.0,98,0.00,,,0.00,meteohub,2013-02-24 17:47:00,
2013-02-24 12:52:00,33.6,33.1,29.79,North,0,2.0,3.0,98,0.00,,,0.00,meteohub,2013-02-24 17:52:00,
2013-02-24 12:57:00,33.4,32.9,29.79,North,0,3.0,3.0,98,0.00,,,0.00,meteohub,2013-02-24 17:57:00,
2013-02-24 13:02:00,33.6,33.1,29.76,North,0,0.0,3.0,98,0.00,,,0.00,meteohub,2013-02-24 18:02:00,
2013-02-24 13:07:00,33.6,33.1,29.76,North,0,0.0,3.0,98,0.00,,,0.00,meteohub,2013-02-24 18:07:00,
2013-02-24 13:12:00,33.6,33.1,29.76,North,0,0.0,3.0,98,0.00,,,0.00,meteohub,2013-02-24 18:12:00,
2013-02-24 13:17:00,33.6,33.1,29.76,North,0,1.0,2.0,98,0.00,,,0.00,meteohub,2013-02-24 18:17:00,
2013-02-24 13:22:00,33.6,33.1,29.76,North,0,2.0,3.0,98,0.00,,,0.00,meteohub,2013-02-24 18:22:00,
2013-02-24 13:27:00,33.6,33.1,29.76,North,0,3.0,3.0,98,0.00,,,0.00,meteohub,2013-02-24 18:27:00,
2013-02-24 13:32:00,33.6,33.1,29.76,North,0,3.0,3.0,98,0.00,,,0.00,meteohub,2013-02-24 18:32:00,
2013-02-24 13:37:00,33.6,33.1,29.76,North,0,2.0,3.0,98,0.00,,,0.00,meteohub,2013-02-24 18:37:00,
2013-02-24 13:42:00,33.6,33.1,29.76,North,0,2.0,3.0,98,0.00,,,0.00,meteohub,2013-02-24 18:42:00,
2013-02-24 13:47:00,33.6,33.1,29.76,North,0,3.0,4.0,98,0.00,,,0.00,meteohub,2013-02-24 18:47:00,
2013-02-24 13:52:00,33.6,33.1,29.76,North,0,3.0,4.0,98,0.04,,,0.04,meteohub,2013-02-24 18:52:00,
2013-02-24 13:57:00,33.6,33.1,29.76,NNW,338,4.0,4.0,98,0.04,,,0.04,meteohub,2013-02-24 18:57:00,
2013-02-24 14:02:00,33.6,33.1,29.76,NNW,338,3.0,4.0,98,0.04,,,0.04,meteohub,2013-02-24 19:02:00,
2013-02-24 14:07:00,33.6,33.1,29.76,NNW,338,5.0,5.0,98,0.04,,,0.04,meteohub,2013-02-24 19:07:00,
2013-02-24 14:12:00,33.6,33.1,29.76,North,0,3.0,5.0,98,0.04,,,0.04,meteohub,2013-02-24 19:12:00,
2013-02-24 14:17:00,33.6,33.1,29.76,NNW,338,3.0,5.0,98,0.04,,,0.04,meteohub,2013-02-24 19:17:00,
2013-02-24 14:22:00,33.6,33.1,29.76,NNE,22,3.0,6.0,98,0.04,,,0.04,meteohub,2013-02-24 19:22:00,
2013-02-24 14:27:00,33.6,33.1,29.76,NNW,338,5.0,6.0,98,0.04,,,0.04,meteohub,2013-02-24 19:27:00,
2013-02-24 14:32:00,33.6,33.1,29.76,NNW,338,4.0,6.0,98,0.04,,,0.04,meteohub,2013-02-24 19:32:00,
2013-02-24 14:37:00,33.6,33.1,29.76,NNE,22,2.0,6.0,98,0.04,,,0.04,meteohub,2013-02-24 19:37:00,
2013-02-24 14:42:00,33.6,33.1,29.76,NNW,338,3.0,6.0,98,0.04,,,0.04,meteohub,2013-02-24 19:42:00,
2013-02-24 14:47:00,33.6,33.1,29.79,NNW,338,4.0,6.0,98,0.00,,,0.04,meteohub,2013-02-24 19:47:00,
2013-02-24 14:52:00,33.6,33.1,29.79,North,0,4.0,6.0,98,0.00,,,0.04,meteohub,2013-02-24 19:52:00,
2013-02-24 14:57:00,33.4,32.9,29.79,North,0,5.0,6.0,98,0.00,,,0.04,meteohub,2013-02-24 19:57:00,
2013-02-24 15:02:00,33.4,32.9,29.79,NNW,338,2.0,5.0,98,0.00,,,0.04,meteohub,2013-02-24 20:02:00,
2013-02-24 15:07:00,33.4,32.9,29.79,North,0,3.0,5.0,98,0.00,,,0.04,meteohub,2013-02-24 20:07:00,
2013-02-24 15:12:00,33.4,32.9,29.79,NW,315,2.0,5.0,98,0.00,,,0.04,meteohub,2013-02-24 20:12:00,
2013-02-24 15:17:00,33.3,32.7,29.82,North,0,2.0,3.0,98,0.00,,,0.04,meteohub,2013-02-24 20:17:00,
2013-02-24 15:22:00,33.3,32.7,29.82,NNW,338,3.0,3.0,98,0.00,,,0.04,meteohub,2013-02-24 20:22:00,
2013-02-24 15:27:00,33.3,32.7,29.82,NNE,22,2.0,4.0,98,0.00,,,0.04,meteohub,2013-02-24 20:27:00,
2013-02-24 15:32:00,33.3,32.7,29.82,North,0,2.0,4.0,98,0.00,,,0.04,meteohub,2013-02-24 20:32:00,
2013-02-24 15:37:00,33.3,32.7,29.82,NNW,338,2.0,4.0,98,0.00,,,0.04,meteohub,2013-02-24 20:37:00,
2013-02-24 15:42:00,33.3,32.7,29.82,North,0,3.0,4.0,98,0.00,,,0.04,meteohub,2013-02-24 20:42:00,
2013-02-24 15:47:00,33.3,32.7,29.82,NNE,22,3.0,3.0,98,0.00,,,0.04,meteohub,2013-02-24 20:47:00,
2013-02-24 15:52:00,33.3,32.7,29.82,North,0,2.0,3.0,98,0.00,,,0.04,meteohub,2013-02-24 20:52:00,
2013-02-24 15:57:00,33.3,32.7,29.82,NNW,338,3.0,4.0,98,0.04,,,0.08,meteohub,2013-02-24 20:57:00,
2013-02-24 16:02:00,33.3,32.7,29.82,NNW,338,2.0,4.0,98,0.04,,,0.08,meteohub,2013-02-24 21:02:00,
2013-02-24 16:07:00,33.3,32.7,29.82,NNW,338,2.0,4.0,98,0.04,,,0.08,meteohub,2013-02-24 21:07:00,
2013-02-24 16:12:00,33.3,32.7,29.82,North,0,1.0,3.0,98,0.04,,,0.08,meteohub,2013-02-24 21:12:00,
2013-02-24 16:17:00,33.4,32.9,29.82,NNW,338,2.0,3.0,98,0.04,,,0.08,meteohub,2013-02-24 21:17:00,
2013-02-24 16:22:00,33.4,32.9,29.82,North,0,4.0,4.0,98,0.04,,,0.08,meteohub,2013-02-24 21:22:00,
2013-02-24 16:27:00,33.4,32.9,29.82,North,0,2.0,4.0,98,0.04,,,0.08,meteohub,2013-02-24 21:27:00,
2013-02-24 16:32:00,33.4,32.9,29.82,North,0,3.0,4.0,98,0.04,,,0.08,meteohub,2013-02-24 21:32:00,
2013-02-24 16:37:00,33.3,32.7,29.82,North,0,3.0,4.0,98,0.04,,,0.08,meteohub,2013-02-24 21:37:00,
2013-02-24 16:42:00,33.3,32.7,29.82,NNW,338,3.0,3.0,98,0.04,,,0.08,meteohub,2013-02-24 21:42:00,
2013-02-24 16:47:00,33.3,32.7,29.82,North,0,3.0,5.0,98,0.04,,,0.08,meteohub,2013-02-24 21:47:00,
2013-02-24 16:52:00,33.1,32.5,29.82,NNW,338,4.0,5.0,98,0.04,,,0.08,meteohub,2013-02-24 21:52:00,
2013-02-24 16:57:00,33.1,32.5,29.82,North,0,2.0,5.0,98,0.00,,,0.08,meteohub,2013-02-24 21:57:00,
2013-02-24 17:02:00,33.1,32.5,29.82,NNW,338,1.0,4.0,98,0.00,,,0.08,meteohub,2013-02-24 22:02:00,
2013-02-24 17:07:00,33.1,32.5,29.82,NNE,22,2.0,4.0,98,0.00,,,0.08,meteohub,2013-02-24 22:07:00,
2013-02-24 17:12:00,33.1,32.5,29.82,NNW,338,2.0,4.0,98,0.00,,,0.08,meteohub,2013-02-24 22:12:00,
2013-02-24 17:17:00,32.9,32.4,29.82,NNW,338,2.0,4.0,98,0.00,,,0.08,meteohub,2013-02-24 22:17:00,
2013-02-24 17:22:00,32.9,32.4,29.82,NNW,338,0.0,4.0,98,0.00,,,0.08,meteohub,2013-02-24 22:22:00,
2013-02-24 17:27:00,32.9,32.4,29.82,NNW,338,3.0,4.0,98,0.00,,,0.08,meteohub,2013-02-24 22:27:00,
2013-02-24 17:32:00,32.9,32.4,29.82,NW,315,2.0,4.0,98,0.00,,,0.08,meteohub,2013-02-24 22:32:00,
2013-02-24 17:37:00,32.9,32.4,29.82,North,0,2.0,4.0,98,0.00,,,0.08,meteohub,2013-02-24 22:37:00,
2013-02-24 17:42:00,32.7,32.2,29.82,NNW,338,2.0,4.0,98,0.00,,,0.08,meteohub,2013-02-24 22:42:00,
2013-02-24 17:47:00,32.7,32.2,29.85,NNW,338,2.0,4.0,98,0.00,,,0.08,meteohub,2013-02-24 22:47:00,
2013-02-24 17:52:00,32.7,32.2,29.85,NNW,338,3.0,4.0,98,0.00,,,0.08,meteohub,2013-02-24 22:52:00,
2013-02-24 17:57:00,32.7,32.2,29.85,North,0,3.0,4.0,98,0.00,,,0.08,meteohub,2013-02-24 22:57:00,
2013-02-24 18:02:00,32.7,32.2,29.85,NNW,338,0.0,4.0,98,0.00,,,0.08,meteohub,2013-02-24 23:02:00,
2013-02-24 18:07:00,32.7,32.2,29.85,NNW,338,1.0,4.0,98,0.00,,,0.08,meteohub,2013-02-24 23:07:00,
2013-02-24 18:12:00,32.7,32.2,29.85,NNE,22,2.0,3.0,98,0.00,,,0.08,meteohub,2013-02-24 23:12:00,
2013-02-24 18:17:00,32.7,32.2,29.85,NNW,338,4.0,5.0,98,0.00,,,0.08,meteohub,2013-02-24 23:17:00,
2013-02-24 18:22:00,32.7,32.2,29.85,NNW,338,3.0,5.0,98,0.00,,,0.08,meteohub,2013-02-24 23:22:00,
2013-02-24 18:27:00,32.7,32.2,29.85,North,0,2.0,6.0,98,0.00,,,0.08,meteohub,2013-02-24 23:27:00,
2013-02-24 18:32:00,32.7,32.2,29.85,NNE,22,2.0,6.0,98,0.00,,,0.08,meteohub,2013-02-24 23:32:00,
2013-02-24 18:37:00,32.7,32.2,29.85,NNE,22,0.0,6.0,98,0.00,,,0.08,meteohub,2013-02-24 23:37:00,
2013-02-24 18:42:00,32.7,32.2,29.85,NNW,338,0.0,3.0,98,0.00,,,0.08,meteohub,2013-02-24 23:42:00,
2013-02-24 18:47:00,32.5,32.0,29.88,North,0,0.0,2.0,98,0.00,,,0.08,meteohub,2013-02-24 23:47:00,
2013-02-24 18:52:00,32.5,32.0,29.88,North,0,0.0,0.0,98,0.00,,,0.08,meteohub,2013-02-24 23:52:00,
2013-02-24 18:57:00,32.5,32.0,29.88,NNW,338,0.0,0.0,98,0.00,,,0.08,meteohub,2013-02-24 23:57:00,
2013-02-24 19:02:00,32.5,32.0,29.88,North,0,0.0,0.0,98,0.00,,,0.08,meteohub,2013-02-25 00:02:00,
2013-02-24 19:07:00,32.5,32.0,29.88,North,0,0.0,0.0,98,0.00,,,0.00,meteohub,2013-02-25 00:07:00,
2013-02-24 19:12:00,32.5,32.0,29.88,North,0,0.0,0.0,98,0.00,,,0.00,meteohub,2013-02-25 00:12:00,
2013-02-24 19:17:00,32.5,32.0,29.88,North,0,0.0,0.0,98,0.00,,,0.00,meteohub,2013-02-25 00:17:00,
2013-02-24 19:22:00,32.5,32.0,29.88,North,0,0.0,0.0,98,0.00,,,0.00,meteohub,2013-02-25 00:22:00,
2013-02-24 19:27:00,32.5,32.0,29.88,NNW,338,0.0,0.0,98,0.00,,,0.00,meteohub,2013-02-25 00:27:00,
2013-02-24 19:32:00,32.5,32.0,29.88,NNW,338,0.0,0.0,98,0.00,,,0.00,meteohub,2013-02-25 00:32:00,
2013-02-24 19:37:00,32.5,32.0,29.88,NE,45,0.0,0.0,98,0.00,,,0.00,meteohub,2013-02-25 00:37:00,
2013-02-24 19:42:00,32.5,32.0,29.88,NNW,338,0.0,0.0,98,0.00,,,0.00,meteohub,2013-02-25 00:42:00,
2013-02-24 19:47:00,32.5,32.0,29.88,North,0,0.0,0.0,98,0.00,,,0.00,meteohub,2013-02-25 00:47:00,
2013-02-24 19:52:00,32.5,32.0,29.88,North,0,0.0,0.0,98,0.00,,,0.00,meteohub,2013-02-25 00:52:00,
2013-02-24 19:57:00,32.5,32.0,29.88,North,0,0.0,0.0,98,0.00,,,0.00,meteohub,2013-02-25 00:57:00,
2013-02-24 20:02:00,32.5,32.0,29.88,North,0,0.0,0.0,98,0.00,,,0.00,meteohub,2013-02-25 01:02:00,
2013-02-24 20:07:00,32.5,32.0,29.88,North,0,0.0,0.0,98,0.00,,,0.00,meteohub,2013-02-25 01:07:00,
2013-02-24 20:12:00,32.5,32.0,29.88,NNW,338,0.0,0.0,98,0.00,,,0.00,meteohub,2013-02-25 01:12:00,
2013-02-24 20:17:00,32.4,31.8,29.91,North,0,0.0,0.0,98,0.00,,,0.00,meteohub,2013-02-25 01:17:00,
2013-02-24 20:22:00,32.4,31.8,29.91,NNW,338,0.0,0.0,98,0.00,,,0.00,meteohub,2013-02-25 01:22:00,
2013-02-24 20:27:00,32.2,31.6,29.91,NNW,338,0.0,0.0,98,0.00,,,0.00,meteohub,2013-02-25 01:27:00,
2013-02-24 20:32:00,32.2,31.6,29.94,North,0,0.0,0.0,98,0.00,,,0.00,meteohub,2013-02-25 01:32:00,
2013-02-24 20:37:00,32.2,31.6,29.94,North,0,0.0,0.0,98,0.00,,,0.00,meteohub,2013-02-25 01:37:00,
2013-02-24 20:42:00,32.2,31.6,29.94,North,0,0.0,0.0,98,0.00,,,0.00,meteohub,2013-02-25 01:42:00,
2013-02-24 20:47:00,32.2,31.6,29.91,North,0,0.0,0.0,98,0.00,,,0.00,meteohub,2013-02-25 01:47:00,
2013-02-24 20:52:00,32.0,31.5,29.91,North,0,0.0,0.0,98,0.00,,,0.00,meteohub,2013-02-25 01:52:00,
2013-02-24 20:57:00,32.0,31.5,29.91,North,0,0.0,0.0,98,0.00,,,0.00,meteohub,2013-02-25 01:57:00,
2013-02-24 21:02:00,32.0,31.5,29.94,North,0,0.0,0.0,98,0.00,,,0.00,meteohub,2013-02-25 02:02:00,
2013-02-24 21:07:00,32.0,31.5,29.94,North,0,0.0,0.0,98,0.00,,,0.00,meteohub,2013-02-25 02:07:00,
2013-02-24 21:12:00,32.0,31.5,29.94,North,0,0.0,0.0,98,0.00,,,0.00,meteohub,2013-02-25 02:12:00,
2013-02-24 21:17:00,32.0,31.5,29.94,North,0,0.0,0.0,98,0.04,,,0.04,meteohub,2013-02-25 02:17:00,
2013-02-24 21:22:00,32.0,31.5,29.94,North,0,0.0,0.0,98,0.04,,,0.04,meteohub,2013-02-25 02:22:00,
2013-02-24 21:27:00,32.0,31.5,29.94,North,0,0.0,0.0,98,0.04,,,0.04,meteohub,2013-02-25 02:27:00,
2013-02-24 21:32:00,32.0,31.5,29.94,North,0,0.0,0.0,98,0.04,,,0.04,meteohub,2013-02-25 02:32:00,
2013-02-24 21:37:00,32.2,31.6,29.94,North,0,0.0,0.0,98,0.04,,,0.04,meteohub,2013-02-25 02:37:00,
2013-02-24 21:42:00,32.2,31.6,29.94,North,0,0.0,0.0,98,0.04,,,0.04,meteohub,2013-02-25 02:42:00,
2013-02-24 21:47:00,32.2,31.6,29.94,North,0,0.0,0.0,98,0.04,,,0.04,meteohub,2013-02-25 02:47:00,
2013-02-24 21:52:00,32.0,31.5,29.94,North,0,0.0,0.0,98,0.04,,,0.04,meteohub,2013-02-25 02:52:00,
2013-02-24 21:57:00,32.0,31.5,29.94,North,0,0.0,0.0,98,0.04,,,0.04,meteohub,2013-02-25 02:57:00,
2013-02-24 22:02:00,32.0,31.5,29.94,North,0,0.0,0.0,98,0.04,,,0.04,meteohub,2013-02-25 03:02:00,
2013-02-24 22:07:00,32.2,31.6,29.94,North,0,0.0,0.0,98,0.04,,,0.04,meteohub,2013-02-25 03:07:00,
2013-02-24 22:12:00,32.2,31.6,29.94,North,0,0.0,0.0,98,0.00,,,0.04,meteohub,2013-02-25 03:12:00,
2013-02-24 22:17:00,32.2,31.6,29.91,North,0,0.0,0.0,98,0.00,,,0.04,meteohub,2013-02-25 03:17:00,
2013-02-24 22:22:00,32.2,31.6,29.91,North,0,0.0,0.0,98,0.00,,,0.04,meteohub,2013-02-25 03:22:00,
2013-02-24 22:27:00,32.2,31.6,29.91,North,0,0.0,0.0,98,0.00,,,0.04,meteohub,2013-02-25 03:27:00,
2013-02-24 22:32:00,32.2,31.6,29.94,North,0,0.0,0.0,98,0.00,,,0.04,meteohub,2013-02-25 03:32:00,
2013-02-24 22:37:00,32.2,31.6,29.94,North,0,0.0,0.0,98,0.00,,,0.04,meteohub,2013-02-25 03:37:00,
2013-02-24 22:42:00,32.2,31.6,29.94,North,0,0.0,0.0,98,0.00,,,0.04,meteohub,2013-02-25 03:42:00,
2013-02-24 22:47:00,32.0,31.5,29.94,North,0,0.0,0.0,98,0.00,,,0.04,meteohub,2013-02-25 03:47:00,
2013-02-24 22:52:00,32.0,31.5,29.94,North,0,0.0,0.0,98,0.00,,,0.04,meteohub,2013-02-25 03:52:00,
2013-02-24 22:57:00,31.8,31.3,29.94,North,0,0.0,0.0,98,0.00,,,0.04,meteohub,2013-02-25 03:57:00,
2013-02-24 23:02:00,31.8,31.3,29.94,North,0,0.0,0.0,98,0.00,,,0.04,meteohub,2013-02-25 04:02:00,
2013-02-24 23:07:00,31.8,31.3,29.94,North,0,0.0,0.0,98,0.00,,,0.04,meteohub,2013-02-25 04:07:00,
2013-02-24 23:12:00,31.8,31.3,29.94,North,0,0.0,0.0,98,0.00,,,0.04,meteohub,2013-02-25 04:12:00,
2013-02-24 23:17:00,31.6,31.1,29.94,North,0,0.0,0.0,98,0.00,,,0.04,meteohub,2013-02-25 04:17:00,
2013-02-24 23:22:00,31.6,31.1,29.94,North,0,0.0,0.0,98,0.00,,,0.04,meteohub,2013-02-25 04:22:00,
2013-02-24 23:27:00,31.6,31.1,29.94,North,0,0.0,0.0,98,0.00,,,0.04,meteohub,2013-02-25 04:27:00,
2013-02-24 23:32:00,31.5,30.9,29.94,North,0,0.0,0.0,98,0.00,,,0.04,meteohub,2013-02-25 04:32:00,
2013-02-24 23:37:00,31.5,30.9,29.94,North,0,0.0,0.0,98,0.00,,,0.04,meteohub,2013-02-25 04:37:00,
2013-02-24 23:42:00,31.5,30.9,29.94,North,0,0.0,0.0,98,0.00,,,0.04,meteohub,2013-02-25 04:42:00,
2013-02-24 23:47:00,31.5,30.9,29.94,North,0,0.0,0.0,98,0.00,,,0.04,meteohub,2013-02-25 04:47:00,
2013-02-24 23:52:00,31.3,30.7,29.94,North,0,0.0,0.0,98,0.00,,,0.04,meteohub,2013-02-25 04:52:00,
2013-02-24 23:57:00,31.3,30.7,29.94,North,0,0.0,0.0,98,0.00,,,0.04,meteohub,2013-02-25 04:57:00,